Time;durP1;ratioP1;P1;durP2;ratioP2;P2;SDS_P1;SDS_P2;PMS_P1;PMS_P2;Temp;Humidity;BMP_temperature;BMP_pressure;BME280_temperature;BME280_humidity;BME280_pressure;Samples;Min_cycle;Max_cycle;Signal;HPM_P1;HPM_P2
2023/06/30 00:00:21;;;;;;;6.87;6.20;;;18.70;99.90;;;;;;4962089;29;20483;-86
2023/06/30 00:02:49;;;;;;;5.60;5.20;;;18.60;99.90;;;;;;4961587;28;20464;-87
2023/06/30 00:05:16;;;;;;;6.40;5.80;;;18.80;99.90;;;;;;4954165;29;20473;-86
2023/06/30 00:07:44;;;;;;;8.90;5.33;;;19.00;99.90;;;;;;4963587;29;20453;-89
2023/06/30 00:10:11;;;;;;;7.27;6.47;;;19.00;99.90;;;;;;4957539;29;20493;-87
2023/06/30 00:12:38;;;;;;;7.43;6.63;;;19.30;99.90;;;;;;4971444;28;20462;-87
2023/06/30 00:15:05;;;;;;;6.87;6.17;;;19.20;99.90;;;;;;4978143;28;20549;-87
2023/06/30 00:17:33;;;;;;;8.80;6.90;;;19.30;99.90;;;;;;4961458;28;20690;-86
2023/06/30 00:20:06;;;;;;;6.80;6.40;;;19.40;99.90;;;;;;4961241;29;20456;-87
2023/06/30 00:22:37;;;;;;;8.40;6.43;;;19.50;99.90;;;;;;4961774;28;20415;-87
2023/06/30 00:25:04;;;;;;;6.03;5.53;;;19.60;99.90;;;;;;4950086;29;20472;-87
2023/06/30 00:27:36;;;;;;;9.63;5.57;;;19.60;99.90;;;;;;4946824;29;20494;-86
2023/06/30 00:30:04;;;;;;;6.83;6.00;;;19.70;99.90;;;;;;4957403;28;20456;-86
2023/06/30 00:32:32;;;;;;;6.67;5.97;;;19.70;99.90;;;;;;4972207;28;20392;-85
2023/06/30 00:35:00;;;;;;;5.50;5.00;;;19.70;99.90;;;;;;4966926;28;20438;-85
2023/06/30 00:37:27;;;;;;;7.97;5.30;;;19.90;99.90;;;;;;4970515;28;20480;-88
2023/06/30 00:39:55;;;;;;;7.70;5.23;;;19.90;99.90;;;;;;4957043;28;20454;-86
2023/06/30 00:42:22;;;;;;;6.00;5.50;;;19.80;99.90;;;;;;4957250;29;20460;-86
2023/06/30 00:44:49;;;;;;;6.33;5.73;;;19.80;99.90;;;;;;4951665;28;20473;-88
2023/06/30 00:47:16;;;;;;;6.83;6.10;;;19.80;99.90;;;;;;4955537;29;20451;-88
2023/06/30 00:49:45;;;;;;;6.70;6.10;;;20.00;99.90;;;;;;4940519;29;20450;-86
2023/06/30 00:52:12;;;;;;;5.83;5.23;;;19.80;99.90;;;;;;4958913;29;20448;-87
2023/06/30 00:54:40;;;;;;;5.37;4.87;;;19.70;99.90;;;;;;4951100;28;20450;-86
2023/06/30 00:57:08;;;;;;;6.03;5.47;;;19.70;99.90;;;;;;4960362;29;20539;-87
2023/06/30 00:59:41;;;;;;;6.63;5.87;;;19.90;99.90;;;;;;4959684;28;20524;-86
2023/06/30 01:02:18;;;;;;;11.03;5.40;;;20.00;99.90;;;;;;4950042;29;20481;-86
2023/06/30 01:05:04;;;;;;;7.20;5.67;;;20.00;99.90;;;;;;4962834;28;20496;-86
2023/06/30 01:07:38;;;;;;;6.37;5.87;;;19.90;99.90;;;;;;4942947;29;20467;-87
2023/06/30 01:10:14;;;;;;;6.30;5.70;;;20.00;99.90;;;;;;4952472;29;20651;-87
2023/06/30 01:12:43;;;;;;;5.63;5.23;;;19.90;99.90;;;;;;4952486;28;20543;-87
2023/06/30 01:15:12;;;;;;;7.00;6.40;;;19.90;99.90;;;;;;4947167;29;20798;-89
2023/06/30 01:17:46;;;;;;;7.10;6.47;;;20.00;99.90;;;;;;4959855;28;20440;-87
2023/06/30 01:20:16;;;;;;;5.90;5.40;;;20.00;99.90;;;;;;4968248;28;20433;-87
2023/06/30 01:23:00;;;;;;;9.73;6.57;;;19.30;99.90;;;;;;4967946;28;20460;-87
2023/06/30 01:25:29;;;;;;;6.20;5.60;;;19.70;99.90;;;;;;4953345;28;20445;-87
2023/06/30 01:27:59;;;;;;;6.87;5.53;;;19.70;99.90;;;;;;4956081;29;20416;-87
2023/06/30 01:30:29;;;;;;;6.53;5.30;;;19.80;99.90;;;;;;4943729;29;20453;-86
2023/06/30 01:32:58;;;;;;;5.97;5.47;;;19.80;99.90;;;;;;4939395;29;20574;-86
2023/06/30 01:35:27;;;;;;;5.37;4.97;;;19.90;99.90;;;;;;4951184;29;20592;-87
2023/06/30 01:37:55;;;;;;;6.07;5.47;;;19.90;99.90;;;;;;4951723;29;21026;-86
2023/06/30 01:40:23;;;;;;;6.40;5.57;;;19.60;99.90;;;;;;4958125;28;20453;-86
2023/06/30 01:42:53;;;;;;;6.60;5.83;;;19.50;99.90;;;;;;4959400;29;20806;-87
2023/06/30 01:45:24;;;;;;;6.70;5.10;;;19.60;99.90;;;;;;4940306;28;20424;-88
2023/06/30 01:47:51;;;;;;;5.70;5.13;;;19.70;99.90;;;;;;4953540;29;21004;-86
2023/06/30 01:50:19;;;;;;;5.90;5.27;;;19.80;99.90;;;;;;4944668;29;20449;-88
2023/06/30 01:52:46;;;;;;;6.80;5.10;;;19.90;99.90;;;;;;4946329;29;20630;-86
2023/06/30 01:55:15;;;;;;;5.70;5.03;;;20.10;99.90;;;;;;4952525;29;20505;-86
2023/06/30 01:57:43;;;;;;;7.50;5.73;;;20.00;99.90;;;;;;4958638;28;20469;-86
2023/06/30 02:00:11;;;;;;;5.93;5.30;;;20.00;99.90;;;;;;4956367;29;20605;-85
2023/06/30 02:02:38;;;;;;;6.80;5.50;;;19.90;99.90;;;;;;4941744;29;20453;-86
2023/06/30 02:05:10;;;;;;;6.30;5.50;;;19.90;99.90;;;;;;4943696;29;20425;-88
2023/06/30 02:07:37;;;;;;;6.40;5.70;;;20.00;99.90;;;;;;4948903;29;20495;-89
2023/06/30 02:10:08;;;;;;;6.17;5.57;;;19.90;99.90;;;;;;4951896;29;20425;-87
2023/06/30 02:12:35;;;;;;;5.50;4.60;;;20.00;99.90;;;;;;4926261;29;20499;-86
2023/06/30 02:15:04;;;;;;;9.50;5.43;;;20.00;99.90;;;;;;4948312;29;20458;-87
2023/06/30 02:17:32;;;;;;;5.37;4.87;;;19.90;99.90;;;;;;4947469;29;20623;-87
2023/06/30 02:20:01;;;;;;;5.63;5.23;;;19.90;99.90;;;;;;4950715;28;20471;-86
2023/06/30 02:22:28;;;;;;;7.30;6.67;;;19.90;99.90;;;;;;4947589;29;20438;-86
2023/06/30 02:24:56;;;;;;;6.30;5.80;;;19.80;99.90;;;;;;4968938;28;20421;-85
2023/06/30 02:27:24;;;;;;;6.80;5.33;;;19.70;99.90;;;;;;4975071;28;20483;-86
2023/06/30 02:29:53;;;;;;;5.97;5.37;;;19.80;99.90;;;;;;4970305;29;20438;-88
2023/06/30 02:32:21;;;;;;;6.43;5.80;;;19.80;99.90;;;;;;4957052;29;20408;-85
2023/06/30 02:34:48;;;;;;;6.23;5.73;;;19.80;99.90;;;;;;4966426;28;20400;-86
2023/06/30 02:37:18;;;;;;;5.63;5.13;;;19.70;99.90;;;;;;4955181;28;20444;-86
2023/06/30 02:39:45;;;;;;;5.77;5.33;;;19.80;99.90;;;;;;4955457;28;20457;-84
2023/06/30 02:42:12;;;;;;;6.10;5.70;;;19.90;99.90;;;;;;4961682;28;20426;-87
2023/06/30 02:44:39;;;;;;;6.10;5.70;;;19.80;99.90;;;;;;4948364;29;20420;-88
2023/06/30 02:47:07;;;;;;;5.70;5.30;;;19.70;99.90;;;;;;4958030;29;20474;-88
2023/06/30 02:49:34;;;;;;;6.67;5.10;;;19.70;99.90;;;;;;4947552;29;20454;-86
2023/06/30 02:52:02;;;;;;;6.80;6.10;;;19.70;99.90;;;;;;4962905;29;20535;-86
2023/06/30 02:54:30;;;;;;;6.30;5.80;;;19.80;99.90;;;;;;4947507;29;20461;-88
2023/06/30 02:57:00;;;;;;;6.53;5.93;;;19.60;99.90;;;;;;4961115;28;20485;-87
2023/06/30 02:59:31;;;;;;;7.93;6.90;;;19.50;99.90;;;;;;4955066;29;20528;-86
2023/06/30 03:02:00;;;;;;;6.03;5.53;;;19.70;99.90;;;;;;4961504;29;21000;-87
2023/06/30 03:04:27;;;;;;;10.03;6.20;;;19.60;99.90;;;;;;4946964;29;20454;-86
2023/06/30 03:06:55;;;;;;;6.57;6.07;;;19.50;99.90;;;;;;4944739;29;21038;-88
2023/06/30 03:09:22;;;;;;;8.30;5.83;;;19.50;99.90;;;;;;4947399;29;20784;-87
2023/06/30 03:11:50;;;;;;;7.33;6.73;;;19.50;99.90;;;;;;4957989;29;20464;-87
2023/06/30 03:14:20;;;;;;;6.60;6.00;;;19.60;99.90;;;;;;4940394;29;21004;-87
2023/06/30 03:16:48;;;;;;;6.83;6.10;;;19.50;99.90;;;;;;4944522;29;20465;-85
2023/06/30 03:19:15;;;;;;;6.53;5.93;;;19.30;99.90;;;;;;4954504;29;20419;-86
2023/06/30 03:21:42;;;;;;;6.03;5.63;;;19.60;99.90;;;;;;4952424;29;20455;-88
2023/06/30 03:24:09;;;;;;;6.77;6.17;;;19.40;99.90;;;;;;4961002;29;20435;-85
2023/06/30 03:26:36;;;;;;;7.70;6.97;;;20.10;99.90;;;;;;4949180;28;20769;-88
2023/06/30 03:29:05;;;;;;;7.20;6.50;;;19.40;99.90;;;;;;4955206;29;20454;-85
2023/06/30 03:31:33;;;;;;;8.20;7.20;;;19.60;99.90;;;;;;4953258;29;20425;-87
2023/06/30 03:34:00;;;;;;;6.80;6.20;;;19.70;99.90;;;;;;4963726;29;20504;-88
2023/06/30 03:36:29;;;;;;;7.00;6.40;;;19.50;99.90;;;;;;4963411;28;20496;-85
2023/06/30 03:38:56;;;;;;;7.93;7.17;;;19.50;99.90;;;;;;4956275;28;20440;-86
2023/06/30 03:41:23;;;;;;;6.80;6.17;;;19.50;99.90;;;;;;4965793;28;20437;-85
2023/06/30 03:43:52;;;;;;;7.63;6.67;;;19.60;99.90;;;;;;4958735;28;20471;-86
2023/06/30 03:46:19;;;;;;;7.43;6.70;;;19.10;99.90;;;;;;4955627;28;20445;-85
2023/06/30 03:48:46;;;;;;;7.20;6.50;;;19.20;99.90;;;;;;4952833;29;20443;-86
2023/06/30 03:51:13;;;;;;;6.93;6.43;;;19.20;99.90;;;;;;4952354;29;20457;-85
2023/06/30 03:53:43;;;;;;;7.17;6.57;;;19.40;99.90;;;;;;4952028;29;20458;-86
2023/06/30 03:56:11;;;;;;;11.43;6.83;;;19.40;99.90;;;;;;4950577;29;20488;-85
2023/06/30 03:58:38;;;;;;;7.47;6.70;;;19.50;99.90;;;;;;4951671;29;20461;-86
2023/06/30 04:01:08;;;;;;;7.87;7.03;;;19.90;99.90;;;;;;4951261;29;20464;-87
2023/06/30 04:03:35;;;;;;;7.10;6.40;;;19.50;99.90;;;;;;4949012;28;21086;-87
2023/06/30 04:06:06;;;;;;;6.50;5.83;;;19.40;99.90;;;;;;4942820;29;20748;-85
2023/06/30 04:08:35;;;;;;;12.70;7.53;;;19.60;99.90;;;;;;4951856;28;20421;-85
2023/06/30 04:11:03;;;;;;;6.80;6.10;;;19.40;99.90;;;;;;4955345;29;20404;-84
2023/06/30 04:13:30;;;;;;;8.23;6.30;;;19.40;99.90;;;;;;4954010;29;20441;-85
2023/06/30 04:15:57;;;;;;;8.83;7.40;;;19.40;99.90;;;;;;4939693;29;20744;-82
2023/06/30 04:18:28;;;;;;;8.20;7.50;;;19.40;99.90;;;;;;4946087;29;20460;-85
2023/06/30 04:20:56;;;;;;;7.00;6.50;;;18.90;99.90;;;;;;4947510;29;20674;-86
2023/06/30 04:23:23;;;;;;;7.10;6.53;;;18.90;99.90;;;;;;4959971;29;20473;-89
2023/06/30 04:25:50;;;;;;;7.57;6.57;;;19.20;99.90;;;;;;4952651;28;20532;-87
2023/06/30 04:28:18;;;;;;;9.80;6.63;;;19.40;99.90;;;;;;4957674;29;20501;-87
2023/06/30 04:30:45;;;;;;;6.63;6.03;;;19.50;99.90;;;;;;4948585;28;20501;-86
2023/06/30 04:33:12;;;;;;;7.40;6.23;;;19.70;99.90;;;;;;4955000;29;20437;-86
2023/06/30 04:35:44;;;;;;;11.07;7.37;;;19.70;99.90;;;;;;4946488;29;20424;-86
2023/06/30 04:38:14;;;;;;;7.17;6.57;;;19.80;99.90;;;;;;4953156;29;20473;-86
2023/06/30 04:40:48;;;;;;;8.80;6.93;;;20.00;99.90;;;;;;4954248;29;20429;-85
2023/06/30 04:43:25;;;;;;;9.37;6.47;;;19.60;99.90;;;;;;4954411;29;20564;-86
2023/06/30 04:45:57;;;;;;;7.57;6.60;;;19.70;99.90;;;;;;4930933;29;20765;-87
2023/06/30 04:48:31;;;;;;;10.03;6.97;;;19.80;99.90;;;;;;4951012;29;20446;-86
2023/06/30 04:51:18;;;;;;;7.00;6.40;;;19.70;99.90;;;;;;4956698;29;20516;-91
2023/06/30 04:53:54;;;;;;;9.23;6.93;;;19.60;99.90;;;;;;4952419;29;20441;-89
2023/06/30 04:56:28;;;;;;;12.80;7.10;;;19.50;99.90;;;;;;4957659;29;20431;-86
2023/06/30 04:58:55;;;;;;;13.00;6.70;;;19.20;99.90;;;;;;4950801;29;20486;-85
2023/06/30 05:01:23;;;;;;;12.03;7.00;;;19.30;99.90;;;;;;4937661;29;20513;-83
2023/06/30 05:03:53;;;;;;;7.47;6.80;;;19.80;99.90;;;;;;4943788;29;20429;-85
2023/06/30 05:06:20;;;;;;;12.20;8.67;;;19.50;99.90;;;;;;4958768;29;20508;-83
2023/06/30 05:08:50;;;;;;;8.40;7.50;;;19.30;99.90;;;;;;4956932;29;20843;-86
2023/06/30 05:11:31;;;;;;;9.27;6.83;;;19.70;99.90;;;;;;4938488;29;20432;-83
2023/06/30 05:14:00;;;;;;;11.03;6.00;;;19.60;99.90;;;;;;4955760;29;20512;-85
2023/06/30 05:16:30;;;;;;;7.87;6.93;;;19.60;99.90;;;;;;4957099;29;20450;-85
2023/06/30 05:19:00;;;;;;;10.33;7.67;;;19.60;99.90;;;;;;4947579;29;20459;-86
2023/06/30 05:21:29;;;;;;;10.30;7.13;;;19.90;99.90;;;;;;4929860;29;20458;-85
2023/06/30 05:23:58;;;;;;;8.57;7.10;;;20.30;99.90;;;;;;4963186;29;20435;-86
2023/06/30 05:26:26;;;;;;;10.80;7.77;;;20.30;99.90;;;;;;4947891;28;20452;-87
2023/06/30 05:28:53;;;;;;;7.30;6.80;;;20.40;99.90;;;;;;4953942;28;20426;-85
2023/06/30 05:31:31;;;;;;;12.57;7.40;;;20.20;99.90;;;;;;4946032;29;20442;-85
2023/06/30 05:34:01;;;;;;;9.17;7.33;;;20.70;99.90;;;;;;4949386;28;20420;-88
2023/06/30 05:36:30;;;;;;;14.00;7.10;;;20.80;99.90;;;;;;4956296;29;20459;-85
2023/06/30 05:39:03;;;;;;;12.40;7.40;;;20.30;99.90;;;;;;4952260;28;20421;-85
2023/06/30 05:41:46;;;;;;;6.70;6.20;;;20.40;99.90;;;;;;4946293;29;20413;-87
2023/06/30 05:44:25;;;;;;;8.53;5.87;;;20.20;99.90;;;;;;4948755;29;20444;-90
2023/06/30 05:46:53;;;;;;;7.43;6.73;;;20.30;99.90;;;;;;4944494;29;20859;-84
2023/06/30 05:49:24;;;;;;;7.63;6.83;;;21.00;99.90;;;;;;4948509;29;20421;-86
2023/06/30 05:51:54;;;;;;;11.33;7.07;;;21.00;99.90;;;;;;4963487;28;20457;-85
2023/06/30 05:54:24;;;;;;;9.77;6.83;;;21.10;99.90;;;;;;4946352;28;20417;-87
2023/06/30 05:56:51;;;;;;;7.47;6.70;;;21.50;99.90;;;;;;4954000;28;20540;-86
2023/06/30 05:59:18;;;;;;;7.73;7.10;;;21.80;99.90;;;;;;4957216;28;20433;-85
2023/06/30 06:01:45;;;;;;;9.50;7.33;;;22.00;99.90;;;;;;4962401;28;20455;-84
2023/06/30 06:04:19;;;;;;;12.37;6.93;;;22.20;99.90;;;;;;4947620;29;20533;-85
2023/06/30 06:06:50;;;;;;;6.43;5.90;;;22.30;99.90;;;;;;4947489;29;20420;-85
2023/06/30 06:09:45;;;;;;;9.17;7.00;;;22.20;99.90;;;;;;4947071;28;20681;-92
2023/06/30 06:12:12;;;;;;;11.70;6.30;;;22.20;99.90;;;;;;4948477;28;20511;-84
2023/06/30 06:14:41;;;;;;;11.90;6.17;;;22.60;99.90;;;;;;4946348;28;20474;-85
2023/06/30 06:17:08;;;;;;;8.40;5.63;;;22.90;99.90;;;;;;4937328;29;20525;-84
2023/06/30 06:19:38;;;;;;;7.03;6.47;;;23.40;99.90;;;;;;4949007;29;20449;-86
2023/06/30 06:22:12;;;;;;;7.00;6.43;;;23.70;99.90;;;;;;4934584;29;20428;-86
2023/06/30 06:24:43;;;;;;;8.23;7.20;;;23.80;99.90;;;;;;4931989;29;20456;-85
2023/06/30 06:27:11;;;;;;;8.03;7.00;;;24.30;99.90;;;;;;4946818;29;20780;-84
2023/06/30 06:29:41;;;;;;;10.13;6.60;;;24.60;99.90;;;;;;4942393;29;20501;-84
2023/06/30 06:32:08;;;;;;;11.90;7.40;;;24.90;99.90;;;;;;4949883;29;20740;-85
2023/06/30 06:34:42;;;;;;;8.90;6.70;;;24.80;99.90;;;;;;4942638;29;20424;-87
2023/06/30 06:37:10;;;;;;;11.40;6.33;;;24.80;99.90;;;;;;4949722;29;20538;-84
2023/06/30 06:39:42;;;;;;;7.73;5.97;;;24.90;99.90;;;;;;4949885;29;20804;-87
2023/06/30 06:42:23;;;;;;;11.40;6.70;;;25.20;99.90;;;;;;4940954;29;20708;-89
2023/06/30 06:44:50;;;;;;;8.33;6.40;;;25.30;99.90;;;;;;4947127;29;20445;-84
2023/06/30 06:47:55;;;;;;;10.20;6.87;;;25.50;99.90;;;;;;4950271;29;20780;-85
2023/06/30 06:50:30;;;;;;;10.03;6.67;;;25.50;99.90;;;;;;4952182;29;20489;-86
2023/06/30 06:52:59;;;;;;;8.20;6.57;;;25.70;99.90;;;;;;4942795;29;20449;-86
2023/06/30 06:55:46;;;;;;;8.97;6.10;;;26.00;99.90;;;;;;4937499;29;20448;-86
2023/06/30 06:58:17;;;;;;;6.37;5.67;;;25.90;99.90;;;;;;4952311;29;20477;-87
2023/06/30 07:01:01;;;;;;;10.70;6.30;;;27.00;99.90;;;;;;4951240;28;20455;-91
2023/06/30 07:03:48;;;;;;;6.73;6.23;;;28.10;99.90;;;;;;4953322;28;20482;-86
2023/06/30 07:06:31;;;;;;;7.47;6.73;;;28.50;99.90;;;;;;4951998;28;20446;-86
2023/06/30 07:09:09;;;;;;;8.63;6.63;;;28.50;99.90;;;;;;4951696;28;20638;-90
2023/06/30 07:12:33;;;;;;;7.30;6.70;;;29.10;99.90;;;;;;4944169;29;20465;-89
2023/06/30 07:15:25;;;;;;;7.20;6.53;;;30.30;99.90;;;;;;5408487;23;21600;-88
2023/06/30 07:17:56;;;;;;;6.47;5.93;;;28.80;99.90;;;;;;4950421;28;20490;-86
2023/06/30 07:20:52;;;;;;;11.10;7.00;;;29.30;99.90;;;;;;4931743;29;20454;-90
2023/06/30 07:27:30;;;;;;;5.87;5.53;;;30.80;99.90;;;;;;4867298;29;20540;-89
2023/06/30 07:30:06;;;;;;;7.37;6.07;;;30.20;99.90;;;;;;4901194;29;20660;-90
2023/06/30 07:39:20;;;;;;;6.00;5.37;;;31.10;99.90;;;;;;4952675;23;20848;-90
2023/06/30 07:44:39;;;;;;;6.73;5.37;;;32.90;99.50;;;;;;5476063;23;20445;-86
2023/06/30 07:47:15;;;;;;;6.10;4.93;;;33.30;95.40;;;;;;5080170;23;20821;-90
2023/06/30 07:49:52;;;;;;;6.07;5.50;;;31.90;96.20;;;;;;5366110;23;20617;-83
2023/06/30 07:52:25;;;;;;;6.27;5.27;;;30.80;97.50;;;;;;5077088;23;20576;-91
2023/06/30 07:55:12;;;;;;;4.80;4.40;;;30.00;98.10;;;;;;5551623;23;20479;-81
2023/06/30 07:57:40;;;;;;;5.57;5.10;;;30.00;99.20;;;;;;4915401;29;20757;-88
2023/06/30 08:03:03;;;;;;;5.20;4.80;;;30.00;99.90;;;;;;5555678;23;20548;-84
2023/06/30 08:05:32;;;;;;;4.97;4.23;;;30.10;99.90;;;;;;5109317;23;20481;-82
2023/06/30 08:08:02;;;;;;;5.30;4.90;;;30.20;99.80;;;;;;5229306;23;21409;-82
2023/06/30 08:10:30;;;;;;;5.20;4.70;;;30.10;99.90;;;;;;4946836;29;20541;-85
2023/06/30 08:13:08;;;;;;;4.83;4.27;;;30.00;99.40;;;;;;4973146;28;20481;-89
2023/06/30 08:36:57;;;;;;;5.40;4.60;;;30.40;99.90;;;;;;5566505;23;20559;-86
2023/06/30 08:48:02;;;;;;;5.40;4.90;;;29.80;99.90;;;;;;5593702;23;20468;-88
2023/06/30 08:54:35;;;;;;;14.00;5.60;;;30.30;99.90;;;;;;5500709;23;20462;-89
2023/06/30 08:57:28;;;;;;;5.37;5.00;;;30.30;99.90;;;;;;5131957;23;20660;-87
2023/06/30 09:02:58;;;;;;;8.70;4.97;;;30.00;99.90;;;;;;5147661;23;20496;-89
2023/06/30 09:08:24;;;;;;;6.17;4.73;;;29.60;99.90;;;;;;5040632;23;20487;-89
2023/06/30 09:11:32;;;;;;;7.00;5.07;;;29.30;99.90;;;;;;4927219;29;20689;-87
2023/06/30 09:14:11;;;;;;;6.63;6.03;;;29.10;99.90;;;;;;4931562;29;20478;-85
2023/06/30 09:16:38;;;;;;;9.60;6.63;;;28.80;99.90;;;;;;4941215;29;20438;-89
2023/06/30 09:19:09;;;;;;;8.33;5.73;;;28.50;99.90;;;;;;4943268;29;20486;-91
2023/06/30 09:22:21;;;;;;;6.73;6.13;;;28.30;99.90;;;;;;4944660;29;20522;-91
2023/06/30 09:25:03;;;;;;;6.70;6.10;;;28.10;99.90;;;;;;4921950;29;20469;-89
2023/06/30 09:27:44;;;;;;;5.20;4.90;;;28.10;99.90;;;;;;4928100;29;20426;-83
2023/06/30 09:30:12;;;;;;;6.83;5.50;;;27.80;99.90;;;;;;5194791;23;20949;-85
2023/06/30 09:32:53;;;;;;;6.07;4.70;;;27.70;99.90;;;;;;5214672;23;20458;-88
2023/06/30 09:35:39;;;;;;;6.13;5.50;;;27.80;99.90;;;;;;4955010;28;20493;-87
2023/06/30 09:38:29;;;;;;;6.70;5.40;;;27.80;99.90;;;;;;5153476;23;20440;-88
2023/06/30 09:41:29;;;;;;;;;;;;;;;;;;;;;
2023/06/30 09:47:26;;;;;;;8.20;6.40;;;28.00;99.90;;;;;;5175055;23;20482;-87
2023/06/30 09:52:36;;;;;;;11.33;6.77;;;28.10;99.90;;;;;;5177858;23;20540;-89
2023/06/30 09:58:39;;;;;;;9.73;6.50;;;28.10;99.90;;;;;;5276718;23;20509;-91
2023/06/30 10:01:21;;;;;;;9.03;6.40;;;28.30;99.90;;;;;;4942380;29;20677;-89
2023/06/30 10:04:08;;;;;;;6.47;5.67;;;28.60;99.90;;;;;;4945503;29;20833;-86
2023/06/30 10:06:46;;;;;;;6.10;5.60;;;28.20;99.90;;;;;;4951036;28;20481;-90
2023/06/30 10:09:18;;;;;;;7.13;5.50;;;27.80;99.90;;;;;;5366561;23;20575;-89
2023/06/30 10:42:36;;;;;;;4.90;4.47;;;28.40;99.90;;;;;;4935209;29;20526;-92
2023/06/30 10:45:54;;;;;;;6.20;5.27;;;28.50;99.90;;;;;;5179701;23;20507;-91
2023/06/30 10:51:49;;;;;;;12.50;5.50;;;28.60;99.90;;;;;;5063614;23;20501;-88
2023/06/30 11:45:29;;;;;;;7.47;6.70;;;28.70;99.90;;;;;;5368425;23;20512;-89
2023/06/30 11:50:41;;;;;;;6.40;6.00;;;28.20;99.90;;;;;;5094975;23;20521;-89
2023/06/30 12:24:09;;;;;;;6.40;5.67;;;28.70;99.90;;;;;;4933356;29;20467;-90
2023/06/30 12:26:53;;;;;;;6.97;6.10;;;28.70;99.90;;;;;;4940985;28;20462;-89
2023/06/30 12:30:46;;;;;;;;;;;;;;;;;;;;;
2023/06/30 12:33:58;;;;;;;11.27;7.37;;;28.70;99.90;;;;;;4929256;29;20501;-89
2023/06/30 12:36:58;;;;;;;7.70;7.07;;;28.70;99.90;;;;;;4920064;29;20554;-88
2023/06/30 12:39:33;;;;;;;15.73;6.37;;;28.60;99.90;;;;;;4921636;29;20502;-88
2023/06/30 12:45:54;;;;;;;8.30;6.00;;;28.40;99.90;;;;;;4924865;29;20464;-87
2023/06/30 12:48:40;;;;;;;5.80;5.30;;;28.40;99.90;;;;;;5115803;23;20579;-88
2023/06/30 12:51:45;;;;;;;;;;;;;;;;;;;;;
2023/06/30 12:54:35;;;;;;;8.33;5.70;;;28.30;99.90;;;;;;4916295;29;20482;-87
2023/06/30 12:57:29;;;;;;;7.20;5.83;;;28.60;99.90;;;;;;4922045;29;20435;-88
2023/06/30 13:00:30;;;;;;;6.37;5.70;;;28.60;99.90;;;;;;4922766;29;20485;-87
2023/06/30 13:03:11;;;;;;;7.30;6.60;;;28.60;99.90;;;;;;4921864;29;20450;-86
2023/06/30 13:05:45;;;;;;;5.70;5.27;;;28.50;99.90;;;;;;4944905;29;20473;-87
2023/06/30 13:08:37;;;;;;;6.30;5.80;;;28.30;99.90;;;;;;4908546;29;20608;-88
2023/06/30 13:11:09;;;;;;;6.63;5.20;;;28.20;99.90;;;;;;4899714;29;20731;-90
2023/06/30 13:14:00;;;;;;;7.20;6.03;;;28.10;99.90;;;;;;4921674;29;20539;-87
2023/06/30 13:16:39;;;;;;;6.00;5.40;;;27.80;99.90;;;;;;4915093;29;20520;-88
2023/06/30 13:19:12;;;;;;;5.13;4.63;;;27.80;99.90;;;;;;4913159;29;20480;-87
2023/06/30 13:21:59;;;;;;;6.70;6.10;;;27.80;99.90;;;;;;4903279;29;20466;-88
2023/06/30 13:24:51;;;;;;;;;;;;;;;;;;;;;
2023/06/30 13:46:04;;;;;;;5.70;5.20;;;26.80;99.90;;;;;;4944220;28;20474;-86
2023/06/30 13:48:41;;;;;;;6.50;5.90;;;26.40;99.90;;;;;;4940726;29;20462;-88
2023/06/30 13:51:08;;;;;;;7.57;6.87;;;26.40;99.90;;;;;;4928080;29;20443;-87
2023/06/30 13:53:38;;;;;;;17.80;6.70;;;26.30;99.90;;;;;;4934427;29;20434;-87
2023/06/30 13:56:06;;;;;;;7.20;6.60;;;26.20;99.90;;;;;;4928308;29;20781;-86
2023/06/30 13:58:33;;;;;;;6.90;6.30;;;26.00;99.90;;;;;;4941069;29;20475;-87
2023/06/30 14:01:05;;;;;;;7.03;6.53;;;25.90;99.90;;;;;;4924457;29;20454;-86
2023/06/30 14:03:33;;;;;;;9.50;6.53;;;25.80;99.90;;;;;;4935175;28;20525;-87
2023/06/30 14:06:03;;;;;;;8.23;6.60;;;25.70;99.90;;;;;;4945682;28;20451;-85
2023/06/30 14:08:30;;;;;;;7.17;6.63;;;25.80;99.90;;;;;;4928563;29;20432;-87
2023/06/30 14:11:00;;;;;;;6.87;6.20;;;26.30;99.90;;;;;;4935460;29;20441;-86
2023/06/30 14:13:27;;;;;;;6.13;5.63;;;26.10;99.90;;;;;;4931389;29;20451;-85
2023/06/30 14:15:54;;;;;;;7.50;6.77;;;26.30;99.90;;;;;;4926891;29;20430;-84
2023/06/30 14:18:23;;;;;;;15.93;7.77;;;26.60;99.90;;;;;;4927074;29;20497;-85
2023/06/30 14:20:50;;;;;;;7.00;6.50;;;26.40;99.90;;;;;;4928593;29;20453;-87
2023/06/30 14:23:17;;;;;;;6.20;5.60;;;26.50;99.90;;;;;;4932422;29;20588;-84
2023/06/30 14:25:46;;;;;;;7.07;6.47;;;26.80;99.90;;;;;;4929067;29;20454;-86
2023/06/30 14:28:17;;;;;;;7.27;6.67;;;26.90;99.90;;;;;;4923996;29;20447;-86
2023/06/30 14:30:44;;;;;;;6.97;6.47;;;26.80;99.90;;;;;;4936619;29;20441;-87
2023/06/30 14:33:17;;;;;;;7.23;6.60;;;26.70;99.90;;;;;;4917616;29;20442;-88
2023/06/30 14:35:52;;;;;;;9.83;7.70;;;26.40;99.90;;;;;;4931730;29;20454;-85
2023/06/30 14:38:20;;;;;;;7.37;6.77;;;25.80;99.90;;;;;;4926307;29;20429;-86
2023/06/30 14:40:54;;;;;;;7.20;6.50;;;25.80;99.90;;;;;;4931144;29;20466;-86
2023/06/30 14:43:23;;;;;;;10.20;7.40;;;25.50;99.90;;;;;;4932971;29;20724;-87
2023/06/30 14:46:10;;;;;;;9.63;8.77;;;25.50;99.90;;;;;;4932914;29;20434;-86
2023/06/30 14:48:41;;;;;;;6.83;6.33;;;25.70;99.90;;;;;;4927139;29;20593;-86
2023/06/30 14:51:22;;;;;;;7.37;6.67;;;25.50;99.90;;;;;;4929529;29;20440;-88
2023/06/30 14:54:01;;;;;;;6.07;5.67;;;25.70;99.90;;;;;;4921743;29;20458;-88
2023/06/30 14:56:38;;;;;;;6.10;5.60;;;25.80;99.90;;;;;;4933743;29;20425;-89
2023/06/30 15:02:41;;;;;;;7.30;6.00;;;25.80;99.90;;;;;;4934679;29;20437;-91
2023/06/30 15:05:37;;;;;;;6.63;6.13;;;25.00;99.90;;;;;;5115153;23;20478;-88
2023/06/30 15:08:35;;;;;;;;;;;;;;;;;;;;;
2023/06/30 15:11:33;;;;;;;;;;;;;;;;;;;;;
2023/06/30 15:14:12;;;;;;;6.10;5.60;;;25.40;99.90;;;;;;4908524;29;20474;-89
2023/06/30 15:17:26;;;;;;;5.77;5.37;;;25.60;99.90;;;;;;4875038;29;20496;-89
2023/06/30 15:20:10;;;;;;;6.30;5.57;;;25.60;99.90;;;;;;4889452;29;20677;-87
2023/06/30 15:22:49;;;;;;;6.97;6.13;;;25.70;99.90;;;;;;4907667;29;20480;-86
2023/06/30 15:25:30;;;;;;;7.83;7.13;;;25.50;99.90;;;;;;4916474;29;20439;-88
2023/06/30 15:28:35;;;;;;;7.80;7.10;;;25.20;99.90;;;;;;4925407;29;20774;-87
2023/06/30 15:31:09;;;;;;;7.80;7.10;;;24.90;99.90;;;;;;4893396;29;20844;-88
2023/06/30 15:33:39;;;;;;;6.60;6.17;;;25.20;99.90;;;;;;4893149;29;20538;-89
2023/06/30 15:36:16;;;;;;;7.97;7.20;;;25.30;99.90;;;;;;4908326;29;20460;-87
2023/06/30 15:38:44;;;;;;;7.90;7.10;;;25.50;99.90;;;;;;4906411;29;20487;-86
2023/06/30 15:41:13;;;;;;;7.30;6.80;;;25.30;99.90;;;;;;4900020;29;20452;-88
2023/06/30 15:43:50;;;;;;;9.67;6.90;;;25.10;99.90;;;;;;4890584;29;20449;-87
2023/06/30 15:46:26;;;;;;;9.00;8.20;;;25.00;99.90;;;;;;4922412;29;20983;-88
2023/06/30 15:49:04;;;;;;;8.30;7.50;;;24.80;99.90;;;;;;4911212;29;20492;-89
2023/06/30 15:51:47;;;;;;;8.13;7.07;;;24.80;99.90;;;;;;4915883;29;20559;-87
2023/06/30 15:54:15;;;;;;;8.13;7.03;;;24.70;99.90;;;;;;4905161;29;20644;-86
2023/06/30 15:56:47;;;;;;;8.80;7.10;;;24.40;99.90;;;;;;4904982;29;20468;-87
2023/06/30 15:59:17;;;;;;;7.97;7.20;;;24.60;99.90;;;;;;4908970;29;20831;-88
2023/06/30 16:01:46;;;;;;;12.47;9.10;;;24.70;99.90;;;;;;4903050;29;20434;-86
2023/06/30 16:04:20;;;;;;;8.00;7.20;;;24.60;99.90;;;;;;4898660;29;20411;-89
2023/06/30 16:07:02;;;;;;;8.70;7.80;;;24.60;99.90;;;;;;4910319;29;20477;-87
2023/06/30 16:09:36;;;;;;;8.43;7.50;;;24.30;99.90;;;;;;4912522;29;20419;-87
2023/06/30 16:12:16;;;;;;;;;;;;;;;;;;;;;
2023/06/30 16:14:50;;;;;;;8.10;7.50;;;24.20;99.90;;;;;;4908659;29;20447;-85
2023/06/30 16:17:34;;;;;;;8.43;7.63;;;24.20;99.90;;;;;;4909848;29;20453;-87
2023/06/30 16:20:06;;;;;;;8.63;8.03;;;23.90;99.90;;;;;;4924268;29;20511;-89
2023/06/30 16:22:37;;;;;;;9.83;8.87;;;23.70;99.90;;;;;;4915090;29;20478;-86
2023/06/30 16:25:15;;;;;;;9.60;8.80;;;23.50;99.90;;;;;;4895069;29;20628;-88
2023/06/30 16:27:44;;;;;;;18.13;10.30;;;23.40;99.90;;;;;;4903884;29;20434;-88
2023/06/30 16:30:29;;;;;;;10.20;9.30;;;23.30;99.90;;;;;;4911124;29;20753;-86
2023/06/30 16:33:04;;;;;;;10.27;9.20;;;23.30;99.90;;;;;;4921695;29;20466;-86
2023/06/30 16:35:34;;;;;;;10.97;10.07;;;23.40;99.90;;;;;;4937650;29;20432;-87
2023/06/30 16:38:08;;;;;;;11.50;10.50;;;23.40;99.90;;;;;;4909849;29;20449;-86
2023/06/30 16:40:40;;;;;;;12.47;10.93;;;23.40;99.90;;;;;;4921825;29;20454;-86
2023/06/30 16:43:14;;;;;;;12.10;10.90;;;23.40;99.90;;;;;;4910763;29;20452;-87
2023/06/30 16:45:46;;;;;;;12.70;11.60;;;23.20;99.90;;;;;;4908587;29;20476;-86
2023/06/30 16:48:14;;;;;;;16.90;15.20;;;23.10;99.90;;;;;;4906992;29;20782;-86
2023/06/30 16:50:42;;;;;;;14.93;13.23;;;23.40;99.90;;;;;;4908261;29;20452;-86
2023/06/30 16:53:10;;;;;;;18.23;13.40;;;23.40;99.90;;;;;;4903857;29;20435;-87
2023/06/30 16:55:46;;;;;;;12.87;11.70;;;23.10;99.90;;;;;;4903295;29;20461;-88
2023/06/30 16:58:16;;;;;;;13.03;11.73;;;22.90;99.90;;;;;;4906825;29;20430;-86